Balsas, Brazil
Current Conditions -  °F | °C
As of 6:00 PM on Tuesday 21 Oct 2014 (Local Time) from SBCI Reporting Station
Clear Clear  
Wind Chill: 84°   Ceiling: Unl
Heat Index: 88°   Visibility: 6mi
Dew Point: 70°   Wind: 3mph
Humidity: 62%   Direction: 310°NW
Pressure: 29.8"   Gusts: NA
Location:  7.52°S, 46.05°W
Report Text: SBCI 212100Z 31003KT CAVOK 29/21 Q1009
Loading
Personal Weather Stations






























Interactive Weather Map
Tropical Storm Tracking
New forecast layout! Learn more

10-Day Weather Forecast

Advertisements
Track Severe Weather on mobile